Impacts TAF Board INFO
IDs:

KMEM - Memphis Intl, TN, US

Issued at 1720 UTC 03 Dec 2016
Updated at 1743 UTC 03 Dec 2016
Potential Impact None Slight Moderate High
Time1654Z 03/18Z 03/19Z 03/20Z 03/21Z 03/22Z 03/23Z 04/00Z 04/01Z 04/02Z 04/03Z 04/04Z 04/05Z 04/06Z
Type OBS PRVL PRVL PRVL PRVL PRVL PRVL PRVL PRVL PRVL PRVL PRVL PRVL PRVL
VIS 10 >6 >6 >6 6 6 6 6 5 5 5 5 5 5
CIG 70 70 70 70 30 30 30 30 7 7 7 7 7 7
Cover OVC OVC OVC OVC OVC OVC OVC OVC OVC OVC OVC OVC OVC OVC
FltCat VFR VFR VFR VFR MVFR MVFR MVFR MVFR IFR IFR IFR IFR IFR IFR
WX -RA -RA -RA -RA -RA -RA -RA -RA RA BR RA BR RA BR RA BR RA BR RA BR
WDir 110 90 90 90 80 80 80 80 80 80 80 80 80 80
WSpd 4 7 7 7 7 7 7 7 8 8 8 8 8 8
WGst -- -- -- -- -- -- -- -- -- -- -- -- -- --

Raw TAF
KMEM 031720Z 0318/0418 09007KT P6SM -RA SCT015 OVC070
  FM032100 08007KT 6SM -RA SCT009 OVC030
  FM040100 08008KT 5SM RA BR BKN007 OVC015
  FM041200 08008KT P6SM VCSH OVC005


Raw METAR
KMEM 031654Z 11004KT 10SM -RA OVC070 09/01 A3033 RMK AO2 RAB51 SLP272 P0000 T00890011 $
KMEM 031554Z 10009KT 10SM OVC095 09/00 A3034 RMK AO2 SLP272 T00890000 $
KMEM 031454Z 09009KT 10SM OVC100 08/00 A3031 RMK AO2 SLP263 T00830000 53005 $

METAR Board
Radar Display
Forecast Discussion